This site, now in its 15th season, is a labour of love and fun from one of Ottawa's most avid time trialists and number crunchers. It adheres to and is permitted by the laws of Canada, promotes the objectives of every bicycle club whose results are shown, and is donated free of charge by myself for your enjoyment and usage. If you would like results from series you ride in to be shown here, give me (celia@drmath.ca) a shout!


Index Page
ATT OTT WTT AATT CFCTT VVVTT
Help resultformat:
Case-sensitive

OBC Open TT Series - 1993-Apr-09 (Good Friday) - 15km (Rockliffe Pkwy) (EvtFactor = 0.6900)

Ottawa Weather (11:00): Cloudy. Temp.: 9.2°C, Humidity: 50%, DewPoint: -0.7°C, Wind: E 11km/h, Pressure: 99.77kPa, Visibility: 24.1km.
Ottawa Weather (12:00): Cloudy. Temp.: 11.6°C, Humidity: 49%, DewPoint: 1.2°C, Wind: ESE 6km/h, Pressure: 99.77kPa, Visibility: 24.1km.
Ottawa Weather (13:00): Mostly Cloudy. Temp.: 15.2°C, Humidity: 39%, DewPoint: 1.4°C, Wind: S 11km/h, Pressure: 99.74kPa, Visibility: 24.1km.

Send photos with description (when/where/what) of yourself on or off of bike to celia@drmath.ca

 
 

BESTS?
 
1 Large, John --- 21:46 41.348 1/63 OSEM 1/24  
2 Cowan, Norman  OBC 22:03 40.816 2/63 OVAM 1/12  
3 Krausbar, Gunther OBC 22:52 39.359 3/63 OSEM 2/24  
St-Amour, Pierre OBC 22:52 39.359 3/63 OVAM 2/12  
5 Fraser, Ian OBC 23:08 38.905 5/63 OSEM 3/24  
6 Moerman, Bram  OBC 23:14 38.737 6/63 OVBM 1/11  
7 Hinz, Richard OBC 23:26 38.407 7/63 OVAM 3/12  
8 McHugh, Craig --- 23:27 38.380 8/63 OSEM 4/24  
9 Schuck, Peter  OBC 23:30 38.298 9/63 OVAM 4/12  
10 Daniels, Stephen OBC 23:35 38.163 10/63 OSEM 5/24  
11 Roy, Louis OBC 23:36 38.136 11/63 OSEM 6/24  
12 Burge, Craig  --- 23:46 37.868 12/63 OSEM 7/24  
13 Bisson, Pascal --- 24:01 37.474 13/63 OSEM 8/24  
14 Bachman, Paul --- 24:07 37.319 14/63 OSEM 9/24  
15 Hamilton, Peter OBC 24:09 37.267 15/63 OSEM 10/24  
Phillips, Ron OBC 24:09 37.267 15/63 OVBM 2/11  
17 Thompson, Grant OBC 24:12 37.190 17/63 XXM 1/4  
18 Bloom, D'Arcy --- 24:22 36.936 18/63 OSEM 11/24  
19 Roy, Marc OBC 24:25 36.860 19/63 OSEM 12/24  
20 Higgins, Bryan OBC 24:30 36.735 20/63 OSEM 13/24  
21 Bachman, Mike --- 24:46 36.339 21/63 OVBM 3/11  
22 Campbell, Colin  OBC 24:50 36.242 22/63 OSEM 14/24  
23 Pazdzior, Ellen  OBC 24:54 36.145 23/63 OVAF 1/2  
24 Beasley, Graham --- 24:58 36.048 24/63 OVBM 4/11  
25 d'Arras, Robert --- 25:07 35.833 25/63 OVAM 5/12  
26 McCoy, Robert --- 25:15 35.644 26/63 OJUM 1/3  
27 Martignago, Mike OBC 25:16 35.620 27/63 OSEM 15/24  
28 Smallwood, Steve OBC 25:21 35.503 28/63 OVAM 6/12  
29 Quesnel, Guy OBC 25:40 35.065 29/63 OSEM 16/24  
30 Deslauriers, Dan --- 25:43 34.997 30/63 OSEM 17/24  
31 Hicks, Bob  OBC 25:47 34.906 31/63 OVBM 5/11  
32 MacDonald, Ryan OBC 25:50 34.839 32/63 OSEM 18/24  
33 Barton, Ron OBC 25:58 34.660 33/63 OVAM 7/12  
34 DeVidi, Robert  OBC 25:59 34.638 34/63 OSEM 19/24  
35 Payette, Erin --- 26:04 34.527 35/63 OSEF 1/3  
36 Vasku, Herb OBC 26:14 34.307 36/63 OVBM 6/11  
37 Simpson, Bob OBC 26:23 34.112 37/63 OVBM 7/11  
38 Ménard, Monique OBC 26:35 33.856 38/63 OSEF 2/3  
39 Waterhouse, Ken OBC 26:39 33.771 39/63 XXM 2/4  
40 Budd, Daniel OBC 26:42 33.708 40/63 OSEM 20/24  
41 Bryson, Alex OBC 26:52 33.499 41/63 XXM 3/4  
42 McInnis, Celia  OBC 26:54 33.457 42/63 OVAF 2/2  
43 Arts, Michael OBC 27:12 33.088 43/63 OCAM 1/1  
44 Austen, Ian  OBC 27:16 33.007 44/63 OVAM 8/12  
45 Waterhouse, Tricia OBC 27:19 32.947 45/63 OSEF 3/3  
Y 46 Quesnel, Nicola --- 27:24 32.847 46/63 OJUF 1/1  
47 Somogyi, Michel OBC 27:25 32.827 47/63 OJUM 2/3  
48 Janusauskas, Vytas  OBC 27:27 32.787 48/63 OVAM 9/12  
49 Le Grand, Gregory OBC 27:59 32.162 49/63 OVBM 8/11  
50 Bowring, John --- 28:31 31.560 50/63 OJUM 3/3  
51 Hope, Walter --- 28:35 31.487 51/63 OVAM 10/12  
52 Robertson, Scott --- 28:36 31.469 52/63 OSEM 21/24  
53 Ajersch, Mary  OBC 28:41 31.377 53/63 OVBF 1/2  
54 Woods, Bob  OBC 28:56 31.106 54/63 OVAM 11/12  
55 Paitich, Daniel OBC 29:20 30.682 55/63 OVAM 12/12  
56 Chen, Jonathan --- 29:39 30.354 56/63 OSEM 22/24  
57 Sabourin, Jean-Paul OBC 29:42 30.303 57/63 OVBM 9/11  
58 Olsen, Mike OBC 30:11 29.818 58/63 OVBM 10/11  
59 Wong, Patrick OBC 30:16 29.736 59/63 OSEM 23/24  
60 Gray, Leona  OBC 30:47 29.237 60/63 OVBF 2/2  
61 Labelle, Denis OBC 32:26 27.749 61/63 XXM 4/4  
Rochon, Francois OBC 32:26 27.749 61/63 OSEM 24/24  
63 Pstross, Nick OBC 35:10 25.592 63/63 OVBM 11/11  
 
Average Speed of all of the above 63 finishes (945km in 27:34:15):34.275
>>>Average of the Average Speeds for these 63 finishes34.610<<<
 

The number of data records shown above is 63
The server processing of your query took: 1 wallclock secs ( 0.09 usr + 0.00 sys = 0.09 CPU)

Thanks to our Helpers: Jim Glover, Denis Fairhead, Ian Fraser, Detlef Hess, Rick Higgins.

     


  Apr 9 (Good Friday)  
Apr 15 Apr 22 (cancelled) Apr 27 Apr 29
May 4 (10km) May 6 May 11 May 11 (10km) May 13 (22km) May 16 (40km) May 18 May 18 (10km) May 20 May 25 May 25 (10km) May 27 (38km) May 30 (40km)
Jun 1 Jun 3 Jun 8 Jun 10 (22km) Jun 15 Jun 17 Jun 22 Jun 22 Jun 24 (38km) Jun 25 Jun 27 (40km/80km) Jun 29 Jun 29 Jun 30
Jul 6 Jul 6 Jul 8 Jul 13 Jul 13 Jul 15 (38km) Jul 20 Jul 20 Jul 22 Jul 25 (80km) Jul 27 Jul 29 (22km)
Aug 3 Aug 3 Aug 5 Aug 7 (38km) Aug 10 Aug 10 Aug 12 Aug 15 (40km/80km) Aug 17 Aug 19 Aug 21 (22km) Aug 24 Aug 24 Aug 26 Aug 29 (40km) Aug 31 (Invitational)
Sep 2 Sep 7 Sep 9 Sep 14 Sep 16 Sep 25 (40km)

OTT Rankings
Best       Best by category
WTT Rankings for OBC Members
5 Best 15km     5 Best 15km by category
OBC Member Best Three 15km Rankings
Overall     by category
OBC BAR Ranking
Overall     by category     Rider "Consistency-Graph"
ABC BAR Ranking
Overall     by category     Rider "Consistency-Graph"
Other years
TT Calculator All TT People All TT events
ABC Home VVV Home
CKAP GOLD MEDAL
Other Links

Please send your comments and suggestions to: Celia McInnis
Copyright © 1998-2011 Celia McInnis. All rights reserved. Links are welcomed.